Time;durP1;ratioP1;P1;durP2;ratioP2;P2;SDS_P1;SDS_P2;PMS_P1;PMS_P2;Temp;Humidity;BMP_temperature;BMP_pressure;BME280_temperature;BME280_humidity;BME280_pressure;Samples;Min_cycle;Max_cycle;Signal;HPM_P1;HPM_P2
2021/01/13 00:01:38;;;;;;;11.37;6.83;;;3.70;99.90;;;;;;5012900;28;20264;-82
2021/01/13 00:04:04;;;;;;;14.07;7.10;;;3.90;99.90;;;;;;5029529;28;20178;-82
2021/01/13 00:06:31;;;;;;;17.67;7.40;;;3.80;99.90;;;;;;5029347;28;20197;-83
2021/01/13 00:08:56;;;;;;;16.23;6.97;;;3.70;99.90;;;;;;5012820;28;20184;-82
2021/01/13 00:11:22;;;;;;;11.40;6.50;;;3.70;99.90;;;;;;5013912;28;20178;-80
2021/01/13 00:13:48;;;;;;;12.50;6.70;;;3.70;99.90;;;;;;5011348;28;20209;-81
2021/01/13 00:16:14;;;;;;;12.17;7.30;;;3.70;99.90;;;;;;5012714;28;20186;-81
2021/01/13 00:18:40;;;;;;;11.60;7.13;;;3.80;99.90;;;;;;5013738;28;20175;-81
2021/01/13 00:21:16;;;;;;;11.83;6.73;;;3.80;99.90;;;;;;5029026;28;20533;-83
2021/01/13 00:23:46;;;;;;;13.53;7.10;;;3.80;99.90;;;;;;5012504;28;20526;-81
2021/01/13 00:26:38;;;;;;;16.27;7.60;;;3.80;99.90;;;;;;4996440;28;20174;-81
2021/01/13 00:29:03;;;;;;;13.40;7.67;;;3.80;99.90;;;;;;5009753;28;20190;-82
2021/01/13 00:31:29;;;;;;;14.87;7.10;;;3.80;99.90;;;;;;5006409;28;20220;-83
2021/01/13 00:33:55;;;;;;;11.93;7.50;;;3.80;99.90;;;;;;5013789;28;20645;-81
2021/01/13 00:36:29;;;;;;;18.07;7.50;;;3.90;99.90;;;;;;5028700;28;20167;-82
2021/01/13 00:38:54;;;;;;;13.17;7.03;;;3.90;99.90;;;;;;5012241;28;20178;-84
2021/01/13 00:41:20;;;;;;;14.60;7.97;;;3.80;99.90;;;;;;5028254;28;20181;-81
2021/01/13 00:43:50;;;;;;;12.33;7.77;;;3.80;99.90;;;;;;5011993;28;20174;-81
2021/01/13 00:46:15;;;;;;;14.83;7.67;;;3.70;99.90;;;;;;5028290;28;20677;-84
2021/01/13 00:48:41;;;;;;;10.17;7.10;;;3.60;99.90;;;;;;5013211;28;20222;-86
2021/01/13 00:51:07;;;;;;;16.60;7.50;;;3.60;99.90;;;;;;5028560;28;20171;-84
2021/01/13 00:53:32;;;;;;;11.27;7.27;;;3.70;99.90;;;;;;5013463;28;20188;-85
2021/01/13 00:55:58;;;;;;;12.23;7.60;;;3.80;99.90;;;;;;5011595;28;20170;-81
2021/01/13 00:58:24;;;;;;;11.57;7.13;;;3.80;99.90;;;;;;5012887;28;20257;-83
2021/01/13 01:00:50;;;;;;;11.37;7.13;;;3.80;99.90;;;;;;5027643;28;20170;-83
2021/01/13 01:03:20;;;;;;;14.43;7.53;;;3.70;99.90;;;;;;5012502;28;20631;-83
2021/01/13 01:05:46;;;;;;;12.63;7.83;;;3.70;99.90;;;;;;5013409;28;20178;-84
2021/01/13 01:08:12;;;;;;;14.27;7.23;;;3.60;99.90;;;;;;5028685;28;20631;-83
2021/01/13 01:10:38;;;;;;;10.43;7.33;;;3.50;99.90;;;;;;5028462;28;20212;-85
2021/01/13 01:13:06;;;;;;;15.53;7.87;;;3.60;99.90;;;;;;5028582;28;20519;-83
2021/01/13 01:15:33;;;;;;;14.30;7.30;;;3.70;99.90;;;;;;5028767;28;20182;-83
2021/01/13 01:17:58;;;;;;;15.47;7.43;;;3.80;99.90;;;;;;5028566;28;20190;-82
2021/01/13 01:20:24;;;;;;;14.83;8.50;;;3.80;99.90;;;;;;5027968;28;20663;-82
2021/01/13 01:22:56;;;;;;;15.87;7.90;;;3.60;99.90;;;;;;5026838;28;20178;-82
2021/01/13 01:25:24;;;;;;;15.87;7.70;;;3.60;99.90;;;;;;5027080;28;20197;-82
2021/01/13 01:28:00;;;;;;;16.07;7.90;;;3.50;99.90;;;;;;5028146;28;20218;-82
2021/01/13 01:30:27;;;;;;;14.03;8.20;;;3.40;99.90;;;;;;5028528;28;20236;-83
2021/01/13 01:32:54;;;;;;;15.17;7.67;;;3.40;99.90;;;;;;5028509;28;20536;-82
2021/01/13 01:35:20;;;;;;;15.70;8.43;;;3.40;99.90;;;;;;5028429;28;20201;-84
2021/01/13 01:37:46;;;;;;;11.47;7.67;;;3.40;99.90;;;;;;5028424;28;20324;-84
2021/01/13 01:40:14;;;;;;;14.47;8.03;;;3.40;99.90;;;;;;5028163;28;20285;-84
2021/01/13 01:42:53;;;;;;;16.00;7.73;;;3.40;99.90;;;;;;5028601;28;20638;-84
2021/01/13 01:45:29;;;;;;;11.73;7.60;;;3.50;99.90;;;;;;5028545;28;20635;-83
2021/01/13 01:47:58;;;;;;;13.93;7.90;;;3.50;99.90;;;;;;5028493;28;20214;-83
2021/01/13 01:50:27;;;;;;;11.93;7.30;;;3.50;99.90;;;;;;5012977;28;20197;-82
2021/01/13 01:53:18;;;;;;;15.43;8.37;;;3.40;99.90;;;;;;5028657;28;20255;-83
2021/01/13 01:55:54;;;;;;;16.83;7.97;;;3.40;99.90;;;;;;5028380;28;20170;-83
2021/01/13 01:58:26;;;;;;;12.63;8.03;;;3.50;99.90;;;;;;5013024;28;20630;-83
2021/01/13 02:00:57;;;;;;;14.33;7.70;;;3.50;99.90;;;;;;5028049;28;20697;-85
2021/01/13 02:03:28;;;;;;;14.53;8.17;;;3.60;99.90;;;;;;5028084;28;20171;-83
2021/01/13 02:05:58;;;;;;;15.77;8.63;;;3.50;99.90;;;;;;5012834;28;20252;-83
2021/01/13 02:08:24;;;;;;;15.67;8.20;;;3.50;99.90;;;;;;5028012;28;20682;-83
2021/01/13 02:10:51;;;;;;;16.60;7.57;;;3.50;99.90;;;;;;5028263;28;20175;-84
2021/01/13 02:13:19;;;;;;;12.97;7.50;;;3.40;99.90;;;;;;5011777;28;20178;-83
2021/01/13 02:15:46;;;;;;;17.63;8.17;;;3.50;99.90;;;;;;5028027;28;20174;-84
2021/01/13 02:18:15;;;;;;;14.50;8.13;;;3.60;99.90;;;;;;5013052;28;20218;-83
2021/01/13 02:20:44;;;;;;;14.40;7.23;;;3.70;99.90;;;;;;5012806;28;20181;-83
2021/01/13 02:23:34;;;;;;;15.40;7.70;;;3.70;99.90;;;;;;5012825;28;20540;-83
2021/01/13 02:26:20;;;;;;;13.90;7.80;;;3.60;99.90;;;;;;5027870;28;20638;-83
2021/01/13 02:28:58;;;;;;;13.67;8.60;;;3.50;99.90;;;;;;5027803;28;20241;-83
2021/01/13 02:31:49;;;;;;;14.87;8.07;;;3.60;99.90;;;;;;5027824;28;20182;-83
2021/01/13 02:34:30;;;;;;;14.43;7.80;;;3.70;99.90;;;;;;5027973;28;20646;-82
2021/01/13 02:37:08;;;;;;;13.03;7.43;;;3.80;99.90;;;;;;5028317;28;20629;-82
2021/01/13 02:39:35;;;;;;;11.90;7.77;;;3.60;99.90;;;;;;5031114;28;20193;-81
2021/01/13 02:42:01;;;;;;;16.30;7.90;;;3.50;99.90;;;;;;5031381;28;20264;-82
2021/01/13 02:44:29;;;;;;;13.00;7.33;;;3.40;99.90;;;;;;5031440;28;20189;-82
2021/01/13 02:46:54;;;;;;;13.20;7.23;;;3.20;99.90;;;;;;5031385;28;20269;-81
2021/01/13 02:49:30;;;;;;;14.57;6.67;;;3.10;99.90;;;;;;5016262;28;20316;-83
2021/01/13 02:52:20;;;;;;;11.37;7.17;;;3.00;99.90;;;;;;5031326;28;20181;-83
2021/01/13 02:54:55;;;;;;;11.40;6.57;;;3.00;99.90;;;;;;5031463;28;20174;-83
2021/01/13 02:57:27;;;;;;;10.73;6.17;;;2.90;99.90;;;;;;5015872;28;20182;-84
2021/01/13 02:59:55;;;;;;;14.03;7.27;;;2.90;99.90;;;;;;5031634;28;20265;-83
2021/01/13 03:02:33;;;;;;;11.57;6.47;;;2.90;99.90;;;;;;5031130;28;20585;-83
2021/01/13 03:04:59;;;;;;;14.63;7.03;;;2.90;99.90;;;;;;5031266;28;20261;-84
2021/01/13 03:07:26;;;;;;;14.33;6.80;;;3.00;99.90;;;;;;5030634;28;20325;-83
2021/01/13 03:09:57;;;;;;;14.03;7.43;;;2.90;99.90;;;;;;5031038;28;20178;-83
2021/01/13 03:12:28;;;;;;;11.77;6.67;;;3.00;99.90;;;;;;5030964;28;20182;-84
2021/01/13 03:14:55;;;;;;;14.40;7.97;;;3.00;99.90;;;;;;5031083;28;20174;-83
2021/01/13 03:17:26;;;;;;;12.43;7.03;;;2.90;99.90;;;;;;5015581;28;20178;-83
2021/01/13 03:20:25;;;;;;;9.07;6.43;;;2.90;99.90;;;;;;5030866;28;20178;-83
2021/01/13 03:23:15;;;;;;;11.67;7.73;;;2.80;99.90;;;;;;5015566;28;20197;-83
2021/01/13 03:25:53;;;;;;;11.73;7.10;;;2.90;99.90;;;;;;5030636;28;20178;-82
2021/01/13 03:28:28;;;;;;;14.57;8.07;;;2.90;99.90;;;;;;5030384;28;20233;-81
2021/01/13 03:30:55;;;;;;;11.43;7.17;;;2.80;99.90;;;;;;5031062;28;20210;-81
2021/01/13 03:33:33;;;;;;;15.07;7.37;;;2.80;99.90;;;;;;5030674;28;20635;-83
2021/01/13 03:36:02;;;;;;;11.13;7.03;;;2.80;99.90;;;;;;5030323;28;20178;-83
2021/01/13 03:38:29;;;;;;;15.70;7.40;;;2.80;99.90;;;;;;5030657;28;20541;-83
2021/01/13 03:41:06;;;;;;;14.40;7.77;;;2.90;99.90;;;;;;5030594;28;20221;-83
2021/01/13 03:43:39;;;;;;;13.10;6.87;;;2.90;99.90;;;;;;5014072;28;20193;-83
2021/01/13 03:46:09;;;;;;;11.83;6.30;;;2.90;99.90;;;;;;5030675;28;20524;-83
2021/01/13 03:48:53;;;;;;;11.40;6.90;;;2.90;99.90;;;;;;5013559;28;20214;-83
2021/01/13 03:51:25;;;;;;;10.20;7.40;;;2.80;99.90;;;;;;5030164;28;20185;-83
2021/01/13 03:53:51;;;;;;;12.53;7.00;;;2.80;99.90;;;;;;5030259;28;20170;-83
2021/01/13 03:56:46;;;;;;;12.90;7.53;;;2.90;99.90;;;;;;5030312;28;20174;-83
2021/01/13 03:59:19;;;;;;;15.83;7.10;;;2.80;99.90;;;;;;5030220;28;20665;-83
2021/01/13 04:01:56;;;;;;;13.03;7.63;;;2.80;99.90;;;;;;5030066;28;20217;-83
2021/01/13 04:05:06;;;;;;;11.50;7.33;;;2.80;99.90;;;;;;5029838;28;20265;-83
2021/01/13 04:07:38;;;;;;;13.40;6.90;;;2.80;99.90;;;;;;4994826;28;20213;-83
2021/01/13 04:10:11;;;;;;;14.00;8.03;;;2.70;99.90;;;;;;5030023;28;20170;-83
2021/01/13 04:12:55;;;;;;;12.77;7.17;;;2.80;99.90;;;;;;5029955;28;20181;-83
2021/01/13 04:15:34;;;;;;;13.13;7.57;;;2.80;99.90;;;;;;5029915;28;20171;-84
2021/01/13 04:18:05;;;;;;;14.93;7.37;;;2.70;99.90;;;;;;5030050;28;20666;-84
2021/01/13 04:20:31;;;;;;;16.03;7.13;;;2.70;99.90;;;;;;5029654;28;20273;-83
2021/01/13 04:22:57;;;;;;;13.87;7.30;;;2.80;99.90;;;;;;5029842;28;20204;-83
2021/01/13 04:25:23;;;;;;;14.07;7.57;;;2.80;99.90;;;;;;5029672;28;20174;-83
2021/01/13 04:27:49;;;;;;;13.97;7.43;;;2.90;99.90;;;;;;5013906;28;20205;-83
2021/01/13 04:30:16;;;;;;;11.07;7.03;;;2.90;99.90;;;;;;5029694;28;20258;-83
2021/01/13 04:32:42;;;;;;;15.20;8.03;;;2.80;99.90;;;;;;5029335;28;20178;-82
2021/01/13 04:35:08;;;;;;;12.63;7.53;;;2.80;99.90;;;;;;5029406;28;20177;-84
2021/01/13 04:37:35;;;;;;;10.67;6.70;;;2.80;99.90;;;;;;5029291;28;20180;-83
2021/01/13 04:40:22;;;;;;;12.30;7.40;;;2.90;99.90;;;;;;5029311;28;20197;-85
2021/01/13 04:43:02;;;;;;;11.97;7.63;;;2.80;99.90;;;;;;5029323;28;20227;-83
2021/01/13 04:45:48;;;;;;;10.93;7.43;;;2.90;99.90;;;;;;5029422;28;20178;-83
2021/01/13 04:48:19;;;;;;;15.67;7.60;;;2.80;99.90;;;;;;5012058;28;20250;-83
2021/01/13 04:50:45;;;;;;;13.10;7.77;;;2.90;99.90;;;;;;5028956;28;20190;-83
2021/01/13 04:53:22;;;;;;;13.17;7.70;;;2.90;99.90;;;;;;5029057;28;20635;-84
2021/01/13 04:55:56;;;;;;;13.00;8.20;;;2.80;99.90;;;;;;5029080;28;20170;-84
2021/01/13 04:59:08;;;;;;;14.83;8.07;;;2.80;99.90;;;;;;5029150;28;20182;-84
2021/01/13 05:02:00;;;;;;;15.30;8.40;;;2.80;99.90;;;;;;5028626;28;20170;-84
2021/01/13 05:05:03;;;;;;;16.97;9.17;;;2.80;99.90;;;;;;5029049;28;20540;-83
2021/01/13 05:07:29;;;;;;;11.33;8.20;;;2.80;99.90;;;;;;5013666;28;20201;-82
2021/01/13 05:09:57;;;;;;;15.63;8.43;;;2.80;99.90;;;;;;5028779;28;20167;-83
2021/01/13 05:12:26;;;;;;;11.63;8.03;;;2.70;99.90;;;;;;5028949;28;20171;-84
2021/01/13 05:14:59;;;;;;;13.10;8.53;;;2.80;99.90;;;;;;5028896;28;20236;-82
2021/01/13 05:17:35;;;;;;;14.70;9.03;;;2.90;99.90;;;;;;5028626;28;20182;-84
2021/01/13 05:20:06;;;;;;;13.63;8.60;;;3.10;99.90;;;;;;5028786;28;20209;-84
2021/01/13 05:22:35;;;;;;;16.47;9.47;;;3.10;99.90;;;;;;5029069;28;20178;-84
2021/01/13 05:25:08;;;;;;;16.17;8.57;;;3.00;99.90;;;;;;5028750;28;20182;-85
2021/01/13 05:28:04;;;;;;;15.17;9.20;;;2.90;99.90;;;;;;5028451;28;20206;-84
2021/01/13 05:30:35;;;;;;;12.07;8.07;;;2.90;99.90;;;;;;5013203;28;20162;-85
2021/01/13 05:33:09;;;;;;;13.30;8.00;;;2.90;99.90;;;;;;5028670;28;20170;-84
2021/01/13 05:35:37;;;;;;;13.53;9.23;;;2.90;99.90;;;;;;5028402;28;20469;-85
2021/01/13 05:38:19;;;;;;;14.43;9.10;;;3.00;99.90;;;;;;5013467;28;20228;-83
2021/01/13 05:40:50;;;;;;;15.70;9.63;;;3.00;99.90;;;;;;5028425;28;20194;-84
2021/01/13 05:43:17;;;;;;;15.53;8.63;;;2.90;99.90;;;;;;5028525;28;20252;-83
2021/01/13 05:45:43;;;;;;;14.20;9.53;;;3.00;99.90;;;;;;5011859;28;20530;-83
2021/01/13 05:48:17;;;;;;;13.37;8.77;;;3.00;99.90;;;;;;5028270;28;20292;-84
2021/01/13 05:50:44;;;;;;;15.20;9.13;;;3.00;99.90;;;;;;5028497;28;20285;-84
2021/01/13 05:53:11;;;;;;;15.20;9.70;;;3.10;99.90;;;;;;5028389;28;20708;-84
2021/01/13 05:55:44;;;;;;;14.13;9.60;;;3.20;99.90;;;;;;5027981;28;20170;-82
2021/01/13 05:58:10;;;;;;;15.87;9.10;;;3.20;99.90;;;;;;5011758;28;20178;-83
2021/01/13 06:00:36;;;;;;;15.83;9.10;;;3.10;99.90;;;;;;5027912;28;20541;-83
2021/01/13 06:03:03;;;;;;;16.03;8.87;;;3.10;99.90;;;;;;5013202;28;20657;-83
2021/01/13 06:05:31;;;;;;;16.13;9.67;;;3.30;99.90;;;;;;5027987;28;20170;-83
2021/01/13 06:07:58;;;;;;;16.40;9.77;;;3.30;99.90;;;;;;5028133;28;20206;-83
2021/01/13 06:10:34;;;;;;;14.73;9.93;;;3.40;99.90;;;;;;5028266;28;20643;-83
2021/01/13 06:13:02;;;;;;;14.53;9.53;;;3.50;99.90;;;;;;5030931;28;20248;-83
2021/01/13 06:15:29;;;;;;;17.03;9.70;;;3.50;99.90;;;;;;5031732;28;20178;-86
2021/01/13 06:17:56;;;;;;;18.37;10.27;;;3.60;99.90;;;;;;5031866;28;20171;-83
2021/01/13 06:20:24;;;;;;;14.90;9.90;;;3.50;99.90;;;;;;5015331;28;20182;-85
2021/01/13 06:22:51;;;;;;;19.07;10.13;;;3.70;99.90;;;;;;5031800;28;20178;-83
2021/01/13 06:25:27;;;;;;;17.40;11.40;;;3.50;99.90;;;;;;5016337;28;20248;-85
2021/01/13 06:28:11;;;;;;;17.03;10.40;;;3.70;99.90;;;;;;5014937;28;20217;-83
2021/01/13 06:30:41;;;;;;;18.27;10.57;;;3.60;99.90;;;;;;5016518;28;20559;-82
2021/01/13 06:33:10;;;;;;;22.07;10.20;;;3.50;99.90;;;;;;5015627;28;20172;-82
2021/01/13 06:36:10;;;;;;;13.87;9.97;;;3.60;99.90;;;;;;5015066;28;20220;-82
2021/01/13 06:38:49;;;;;;;17.23;10.63;;;3.50;99.90;;;;;;5016149;28;20705;-83
2021/01/13 06:41:14;;;;;;;15.30;11.10;;;3.60;99.90;;;;;;5014904;28;20213;-85
2021/01/13 06:44:06;;;;;;;18.20;10.87;;;3.60;99.90;;;;;;5015958;28;20213;-86
2021/01/13 06:46:33;;;;;;;17.10;10.47;;;3.70;99.90;;;;;;5015419;28;20197;-82
2021/01/13 06:49:20;;;;;;;18.73;11.07;;;3.80;99.90;;;;;;5018430;28;20271;-81
2021/01/13 06:51:47;;;;;;;18.20;11.00;;;3.70;99.90;;;;;;5014198;28;20193;-81
2021/01/13 06:54:15;;;;;;;21.90;11.13;;;3.70;99.90;;;;;;5015863;28;20658;-82
2021/01/13 06:56:49;;;;;;;19.63;11.13;;;3.60;99.90;;;;;;5014414;28;20611;-82
2021/01/13 06:59:16;;;;;;;19.73;11.80;;;3.70;99.90;;;;;;5014399;28;20180;-84
2021/01/13 07:01:56;;;;;;;15.43;10.50;;;3.70;99.90;;;;;;5015328;28;20170;-82
2021/01/13 07:04:23;;;;;;;17.77;12.20;;;3.70;99.90;;;;;;5014463;28;20174;-83
2021/01/13 07:07:05;;;;;;;17.07;10.90;;;3.60;99.90;;;;;;5015803;28;20173;-82
2021/01/13 07:09:51;;;;;;;17.60;11.87;;;3.60;99.90;;;;;;5014940;28;20185;-85
2021/01/13 07:12:30;;;;;;;18.53;11.07;;;3.70;99.90;;;;;;5013786;28;20166;-81
2021/01/13 07:14:57;;;;;;;22.17;12.07;;;3.70;99.90;;;;;;5013946;28;20220;-82
2021/01/13 07:17:25;;;;;;;18.00;12.17;;;3.70;99.90;;;;;;5013895;28;20170;-81
2021/01/13 07:19:53;;;;;;;28.10;12.37;;;3.80;99.90;;;;;;5015071;28;20181;-82
2021/01/13 07:22:21;;;;;;;20.70;11.67;;;3.70;99.90;;;;;;5013130;28;20202;-83
2021/01/13 07:24:48;;;;;;;19.50;11.20;;;3.70;99.90;;;;;;5013738;28;20171;-82
2021/01/13 07:27:15;;;;;;;21.57;10.50;;;3.60;99.90;;;;;;5013391;28;20198;-84
2021/01/13 07:29:41;;;;;;;17.00;10.20;;;3.70;99.90;;;;;;5014362;28;20170;-84
2021/01/13 07:32:08;;;;;;;18.83;11.40;;;3.70;99.90;;;;;;5013911;28;20171;-83
2021/01/13 07:34:44;;;;;;;16.50;11.20;;;3.60;99.90;;;;;;5013621;28;20174;-82
2021/01/13 07:37:17;;;;;;;16.13;11.07;;;3.70;99.90;;;;;;5011051;28;20244;-81
2021/01/13 07:40:04;;;;;;;19.87;11.07;;;3.70;99.90;;;;;;5012305;28;20201;-81
2021/01/13 07:42:36;;;;;;;20.77;11.33;;;3.60;99.90;;;;;;5012744;28;20202;-82
2021/01/13 07:45:27;;;;;;;21.80;11.67;;;3.60;99.90;;;;;;5014649;28;20175;-82
2021/01/13 07:48:16;;;;;;;22.53;11.53;;;3.60;99.90;;;;;;5014298;28;20782;-81
2021/01/13 07:50:44;;;;;;;24.40;11.80;;;3.60;99.90;;;;;;5013157;28;20186;-81
2021/01/13 07:53:34;;;;;;;22.60;12.13;;;3.50;99.90;;;;;;5012921;28;20186;-83
2021/01/13 07:56:03;;;;;;;18.37;11.60;;;3.40;99.90;;;;;;5012297;28;20210;-82
2021/01/13 07:58:34;;;;;;;20.60;11.87;;;3.50;99.90;;;;;;5013955;28;20607;-83
2021/01/13 08:01:33;;;;;;;20.23;11.77;;;3.40;99.90;;;;;;5013010;28;20240;-82
2021/01/13 08:04:36;;;;;;;17.53;11.53;;;3.60;99.90;;;;;;5013014;28;20194;-82
2021/01/13 08:07:02;;;;;;;18.10;11.10;;;3.70;99.90;;;;;;5012762;28;20181;-83
2021/01/13 08:09:33;;;;;;;21.37;12.57;;;3.70;99.90;;;;;;5014186;28;20612;-82
2021/01/13 08:12:13;;;;;;;20.40;11.80;;;3.70;99.90;;;;;;5011762;28;20173;-83
2021/01/13 08:14:48;;;;;;;20.93;11.53;;;3.70;99.90;;;;;;5012997;28;20665;-83
2021/01/13 08:17:44;;;;;;;22.00;12.17;;;3.60;99.90;;;;;;5012704;28;20185;-82
2021/01/13 08:20:42;;;;;;;21.67;12.30;;;3.60;99.90;;;;;;5013904;28;20166;-82
2021/01/13 08:23:20;;;;;;;23.77;13.40;;;3.70;99.90;;;;;;5012425;28;20650;-82
2021/01/13 08:25:54;;;;;;;19.80;11.80;;;3.70;99.90;;;;;;5012569;28;20642;-82
2021/01/13 08:28:21;;;;;;;17.73;11.50;;;3.60;99.90;;;;;;5013497;28;20198;-83
2021/01/13 08:30:52;;;;;;;25.07;11.87;;;3.50;99.90;;;;;;5012397;28;20171;-82
2021/01/13 08:33:25;;;;;;;24.97;11.80;;;3.60;99.90;;;;;;5013919;28;20737;-82
2021/01/13 08:35:57;;;;;;;22.70;12.03;;;3.70;99.90;;;;;;5011522;28;20178;-83
2021/01/13 08:38:23;;;;;;;23.50;11.63;;;3.70;99.90;;;;;;5012255;28;20181;-82
2021/01/13 08:40:49;;;;;;;17.50;11.27;;;3.70;99.90;;;;;;5014933;28;20280;-83
2021/01/13 08:43:18;;;;;;;19.83;11.23;;;3.70;99.90;;;;;;5012883;28;20289;-83
2021/01/13 08:45:46;;;;;;;21.63;11.33;;;3.60;99.90;;;;;;5012087;28;20277;-84
2021/01/13 08:48:14;;;;;;;23.17;11.70;;;3.70;99.90;;;;;;5013313;28;20221;-83
2021/01/13 08:50:42;;;;;;;18.33;10.63;;;3.70;99.90;;;;;;5012239;28;20194;-83
2021/01/13 08:53:22;;;;;;;19.80;11.13;;;3.70;99.90;;;;;;5011938;28;20182;-84
2021/01/13 08:55:54;;;;;;;17.30;10.07;;;3.80;99.90;;;;;;5011851;28;20308;-83
2021/01/13 08:58:32;;;;;;;20.67;10.90;;;3.90;99.90;;;;;;5011833;28;20178;-82
2021/01/13 09:01:08;;;;;;;18.63;11.03;;;3.90;99.90;;;;;;5014269;28;20198;-86
2021/01/13 09:03:41;;;;;;;23.03;11.43;;;3.80;99.90;;;;;;5012265;28;20182;-83
2021/01/13 09:06:29;;;;;;;19.00;11.37;;;3.80;99.90;;;;;;5012858;28;20645;-85
2021/01/13 09:08:57;;;;;;;19.80;10.53;;;3.90;99.90;;;;;;5007431;28;20401;-84
2021/01/13 09:11:37;;;;;;;17.17;10.03;;;3.90;99.90;;;;;;5011744;28;20171;-83
2021/01/13 09:14:23;;;;;;;19.33;10.90;;;4.10;99.90;;;;;;5011275;28;20178;-81
2021/01/13 09:16:52;;;;;;;19.40;10.57;;;4.10;99.90;;;;;;5011128;28;20189;-81
2021/01/13 09:19:29;;;;;;;18.10;11.10;;;4.00;99.90;;;;;;5012316;28;20173;-86
2021/01/13 09:22:03;;;;;;;21.33;9.57;;;3.90;99.90;;;;;;5013196;28;20221;-86
2021/01/13 09:24:43;;;;;;;16.90;9.90;;;3.90;99.90;;;;;;5013915;28;20162;-91
2021/01/13 09:27:12;;;;;;;18.50;9.63;;;3.90;99.90;;;;;;5028822;28;20626;-90
2021/01/13 09:29:54;;;;;;;25.23;11.80;;;4.00;99.90;;;;;;5028302;28;20189;-90
2021/01/13 09:32:22;;;;;;;22.43;10.00;;;3.90;99.90;;;;;;5012631;28;20174;-85
2021/01/13 09:34:49;;;;;;;14.77;9.17;;;3.80;99.90;;;;;;5011941;28;20178;-88
2021/01/13 09:37:16;;;;;;;21.60;10.23;;;3.90;99.90;;;;;;5013054;28;20255;-88
2021/01/13 09:40:01;;;;;;;17.40;9.53;;;3.90;99.90;;;;;;5011446;28;20709;-86
2021/01/13 09:42:37;;;;;;;21.43;9.97;;;3.90;99.90;;;;;;5028249;28;20253;-85
2021/01/13 09:45:04;;;;;;;20.00;9.50;;;4.10;99.90;;;;;;5011775;28;20170;-91
2021/01/13 09:47:30;;;;;;;17.50;8.63;;;4.20;99.90;;;;;;5016838;28;20201;-85
2021/01/13 09:49:58;;;;;;;19.00;8.70;;;4.70;99.90;;;;;;5014608;28;20194;-88
2021/01/13 09:52:25;;;;;;;21.67;10.90;;;5.10;99.90;;;;;;5018156;28;20178;-85
2021/01/13 09:54:52;;;;;;;18.50;9.63;;;5.30;99.90;;;;;;5017633;28;20197;-84
2021/01/13 09:57:19;;;;;;;21.20;8.70;;;5.40;99.90;;;;;;5017968;28;20163;-89
2021/01/13 10:00:13;;;;;;;14.57;9.30;;;5.60;99.90;;;;;;5017465;28;20217;-85
2021/01/13 10:02:40;;;;;;;17.47;8.80;;;5.70;99.90;;;;;;5009757;28;20186;-82
2021/01/13 10:05:07;;;;;;;15.07;8.40;;;5.80;99.90;;;;;;5017558;28;20200;-87
2021/01/13 10:07:35;;;;;;;17.93;9.07;;;5.90;99.90;;;;;;5015148;28;20336;-87
2021/01/13 10:10:03;;;;;;;17.47;8.53;;;6.10;99.90;;;;;;5014987;28;20174;-86
2021/01/13 10:12:36;;;;;;;14.90;8.83;;;6.20;99.90;;;;;;5016743;28;20209;-82
2021/01/13 10:15:06;;;;;;;13.60;7.77;;;6.20;99.90;;;;;;5015104;28;20178;-80
2021/01/13 10:17:33;;;;;;;15.47;8.07;;;5.80;99.90;;;;;;5015674;28;20167;-84
2021/01/13 10:20:21;;;;;;;17.73;9.90;;;5.60;99.90;;;;;;5014742;28;20178;-86
2021/01/13 10:22:48;;;;;;;15.27;8.70;;;5.40;99.90;;;;;;5022292;28;20188;-85
2021/01/13 10:25:28;;;;;;;15.70;8.43;;;5.30;99.90;;;;;;5014791;28;20425;-86
2021/01/13 10:27:55;;;;;;;12.73;8.10;;;5.20;99.90;;;;;;5013248;28;20681;-81
2021/01/13 10:30:21;;;;;;;20.60;9.40;;;5.20;99.90;;;;;;5014758;28;20242;-87
2021/01/13 10:32:47;;;;;;;15.20;8.47;;;5.20;99.90;;;;;;5014609;28;20658;-84
2021/01/13 10:35:13;;;;;;;14.67;8.53;;;5.40;99.90;;;;;;5015720;28;20178;-86
2021/01/13 10:37:40;;;;;;;18.37;8.77;;;5.20;99.90;;;;;;5014650;28;20181;-84
2021/01/13 10:40:09;;;;;;;16.27;9.03;;;5.30;99.90;;;;;;5014176;28;20198;-85
2021/01/13 10:42:39;;;;;;;12.90;7.80;;;5.50;99.90;;;;;;5015829;28;20245;-85
2021/01/13 10:45:13;;;;;;;11.37;7.30;;;5.60;99.90;;;;;;5013918;28;20182;-85
2021/01/13 10:47:52;;;;;;;16.27;7.80;;;5.60;99.90;;;;;;5015045;28;20206;-87
2021/01/13 10:50:21;;;;;;;12.87;7.47;;;5.70;99.90;;;;;;5014078;28;20646;-87
2021/01/13 10:52:52;;;;;;;12.43;7.70;;;5.70;99.90;;;;;;5014714;28;20269;-87
2021/01/13 10:55:19;;;;;;;11.90;7.43;;;5.80;99.90;;;;;;5014631;28;20177;-85
2021/01/13 10:57:48;;;;;;;9.53;7.03;;;5.70;99.90;;;;;;5013720;28;20182;-85
2021/01/13 11:00:16;;;;;;;12.77;7.67;;;5.70;99.90;;;;;;5014571;28;20198;-86
2021/01/13 11:02:51;;;;;;;14.87;7.57;;;5.70;99.90;;;;;;5014693;28;20533;-86
2021/01/13 11:05:17;;;;;;;11.83;6.90;;;5.70;99.90;;;;;;5013935;28;20185;-85
2021/01/13 11:07:43;;;;;;;13.80;7.70;;;5.80;99.90;;;;;;5014942;28;20228;-85
2021/01/13 11:10:11;;;;;;;14.40;7.50;;;5.80;99.90;;;;;;5014224;28;20182;-86
2021/01/13 11:12:37;;;;;;;14.17;8.33;;;5.80;99.90;;;;;;5014401;28;20634;-85
2021/01/13 11:15:05;;;;;;;13.27;7.30;;;5.70;99.90;;;;;;5014471;28;20185;-87
2021/01/13 11:17:32;;;;;;;17.73;7.83;;;5.70;99.90;;;;;;5014230;28;20179;-85
2021/01/13 11:20:00;;;;;;;17.53;9.00;;;5.80;99.90;;;;;;5013524;28;20228;-85
2021/01/13 11:22:45;;;;;;;13.17;7.70;;;5.80;99.90;;;;;;5014137;28;20182;-85
2021/01/13 11:25:39;;;;;;;14.87;7.90;;;5.80;99.90;;;;;;5013825;28;20186;-86
2021/01/13 11:28:11;;;;;;;12.97;8.13;;;5.70;99.90;;;;;;5013729;28;20303;-84
2021/01/13 11:30:42;;;;;;;14.50;8.30;;;5.60;99.90;;;;;;5013891;28;20170;-86
2021/01/13 11:33:10;;;;;;;14.70;8.30;;;5.60;99.90;;;;;;5013043;28;20248;-87
2021/01/13 11:35:40;;;;;;;14.13;7.60;;;5.50;99.90;;;;;;5012892;28;20186;-85
2021/01/13 11:38:09;;;;;;;11.47;8.13;;;5.50;99.90;;;;;;5023295;28;20659;-84
2021/01/13 11:40:54;;;;;;;12.50;8.57;;;5.60;99.90;;;;;;5002849;28;20202;-84
2021/01/13 11:43:28;;;;;;;14.30;7.30;;;5.70;99.90;;;;;;5010179;28;20170;-86
2021/01/13 11:46:10;;;;;;;13.00;7.70;;;5.70;99.90;;;;;;5014282;28;20264;-86
2021/01/13 11:49:04;;;;;;;13.43;7.90;;;5.70;99.90;;;;;;5006531;28;20252;-84
2021/01/13 11:51:37;;;;;;;15.87;8.93;;;5.60;99.90;;;;;;4985558;28;20261;-84
2021/01/13 11:54:03;;;;;;;11.73;7.87;;;5.80;99.90;;;;;;5014710;28;20182;-85
2021/01/13 11:56:30;;;;;;;13.33;8.67;;;5.60;99.90;;;;;;5013778;28;20193;-88
2021/01/13 11:58:57;;;;;;;13.10;8.13;;;5.60;99.90;;;;;;5000617;28;20268;-85
2021/01/13 12:01:27;;;;;;;16.20;8.50;;;5.60;99.90;;;;;;5009484;28;20334;-87
2021/01/13 12:04:04;;;;;;;14.40;8.50;;;5.60;99.90;;;;;;5028585;28;20181;-84
2021/01/13 12:06:30;;;;;;;13.40;8.63;;;5.80;99.90;;;;;;5015802;28;20162;-83
2021/01/13 12:08:56;;;;;;;14.63;9.03;;;5.60;99.90;;;;;;5028630;28;20233;-85
2021/01/13 12:11:22;;;;;;;10.47;8.23;;;5.60;99.90;;;;;;5006916;28;20265;-85
2021/01/13 12:13:49;;;;;;;13.70;8.47;;;5.60;99.90;;;;;;5013359;28;20178;-84
2021/01/13 12:16:20;;;;;;;16.73;8.97;;;5.60;99.90;;;;;;5010762;28;20241;-83
2021/01/13 12:18:51;;;;;;;16.27;8.73;;;5.60;99.90;;;;;;5009002;28;20174;-87
2021/01/13 12:21:23;;;;;;;13.23;8.60;;;5.70;99.90;;;;;;5011902;28;20181;-85
2021/01/13 12:23:53;;;;;;;12.07;8.20;;;5.90;99.90;;;;;;5012406;28;20186;-84
2021/01/13 12:26:20;;;;;;;15.70;8.57;;;5.90;99.90;;;;;;5029879;28;20245;-84
2021/01/13 12:28:49;;;;;;;18.20;9.60;;;5.90;99.90;;;;;;5029068;28;20214;-83
2021/01/13 12:31:16;;;;;;;12.50;7.67;;;5.90;99.90;;;;;;5012682;28;20170;-84
2021/01/13 12:33:53;;;;;;;19.07;9.80;;;5.80;99.90;;;;;;5012778;28;20597;-87
2021/01/13 12:36:21;;;;;;;20.83;9.47;;;5.90;99.90;;;;;;5012365;28;20173;-83
2021/01/13 12:38:47;;;;;;;15.30;8.70;;;5.90;99.90;;;;;;5028941;28;20186;-86
2021/01/13 12:41:24;;;;;;;18.53;9.43;;;6.00;99.90;;;;;;5033507;28;20190;-86
2021/01/13 12:43:50;;;;;;;14.37;8.90;;;6.10;99.90;;;;;;5029534;28;20181;-86
2021/01/13 12:46:30;;;;;;;12.83;8.83;;;6.10;99.90;;;;;;5028932;28;20626;-86
2021/01/13 12:48:57;;;;;;;13.67;8.63;;;5.90;99.90;;;;;;5029146;28;20232;-85
2021/01/13 12:51:23;;;;;;;16.33;8.63;;;5.90;99.90;;;;;;5028473;28;20649;-87
2021/01/13 12:53:52;;;;;;;15.20;9.00;;;6.00;99.90;;;;;;5013118;28;20658;-84
2021/01/13 12:56:29;;;;;;;15.40;9.07;;;6.00;99.90;;;;;;5006225;28;20197;-86
2021/01/13 12:58:56;;;;;;;15.00;8.67;;;6.00;99.90;;;;;;5012325;28;20170;-86
2021/01/13 13:01:22;;;;;;;14.87;8.90;;;6.20;99.90;;;;;;5008196;28;20270;-86
2021/01/13 13:03:48;;;;;;;15.70;9.47;;;6.00;99.90;;;;;;5026662;28;20258;-86
2021/01/13 13:06:26;;;;;;;13.97;8.90;;;6.20;99.90;;;;;;5007031;28;20163;-85
2021/01/13 13:08:52;;;;;;;15.20;10.33;;;6.00;99.90;;;;;;5026852;28;20210;-86
2021/01/13 13:11:18;;;;;;;17.37;9.97;;;5.90;99.90;;;;;;5014368;28;20197;-86
2021/01/13 13:13:44;;;;;;;14.57;10.30;;;5.90;99.90;;;;;;5013054;28;20178;-85